Time;durP1;ratioP1;P1;durP2;ratioP2;P2;SDS_P1;SDS_P2;PMS_P1;PMS_P2;Temp;Humidity;BMP_temperature;BMP_pressure;BME280_temperature;BME280_humidity;BME280_pressure;Samples;Min_cycle;Max_cycle;Signal;HPM_P1;HPM_P2
2022/06/23 00:01:16;;;;;;;;;16.25;14.75;;;;;22.88;57.15;100729.88;6248336;22;53170;-85
2022/06/23 00:03:42;;;;;;;;;15.50;13.75;;;;;22.86;56.42;100728.28;6248456;22;45209;-85
2022/06/23 00:06:21;;;;;;;;;19.75;17.25;;;;;22.88;58.71;100731.66;6248037;22;45481;-87
2022/06/23 00:08:47;;;;;;;;;22.25;21.25;;;;;22.83;59.27;100734.69;6248989;22;45283;-87
2022/06/23 00:11:23;;;;;;;;;21.75;18.00;;;;;22.67;59.70;100724.47;6274949;22;61896;-86
2022/06/23 00:13:49;;;;;;;;;22.00;19.75;;;;;22.56;60.20;100721.81;6249022;22;45254;-85
2022/06/23 00:16:22;;;;;;;;;22.00;18.25;;;;;22.45;61.13;100725.31;6248330;22;46424;-85
2022/06/23 00:18:48;;;;;;;;;22.25;19.50;;;;;22.38;60.30;100737.38;6247506;22;45220;-85
2022/06/23 00:21:21;;;;;;;;;21.75;21.75;;;;;22.31;60.22;100736.19;6246724;22;49178;-85
2022/06/23 00:23:51;;;;;;;;;22.50;19.00;;;;;22.21;60.45;100723.63;6248228;22;45453;-85
2022/06/23 00:26:26;;;;;;;;;24.00;18.50;;;;;22.13;61.08;100722.53;6274723;22;45309;-85
2022/06/23 00:29:01;;;;;;;;;20.25;18.75;;;;;22.06;61.48;100710.72;6249475;22;45248;-85
2022/06/23 00:31:39;;;;;;;;;26.50;23.50;;;;;21.96;61.81;100703.47;6248085;22;45254;-85
2022/06/23 00:34:17;;;;;;;;;28.25;23.75;;;;;21.89;61.61;100719.97;6247580;22;45411;-84
2022/06/23 00:36:51;;;;;;;;;22.25;21.00;;;;;21.79;61.31;100712.72;6247845;22;45504;-85
2022/06/23 00:39:31;;;;;;;;;22.25;21.75;;;;;21.70;62.11;100702.84;6247837;22;45839;-85
2022/06/23 00:41:57;;;;;;;;;27.50;23.75;;;;;21.62;62.30;100697.28;6275343;22;45171;-84
2022/06/23 00:44:37;;;;;;;;;24.75;22.75;;;;;21.57;62.28;100699.44;6247660;22;45338;-83
2022/06/23 00:47:07;;;;;;;;;27.75;23.50;;;;;21.51;62.52;100694.59;6247411;22;45426;-85
2022/06/23 00:49:41;;;;;;;;;32.50;28.50;;;;;21.44;62.71;100699.50;6248201;22;45349;-85
2022/06/23 00:52:19;;;;;;;;;24.75;23.50;;;;;21.40;63.27;100690.09;6248257;22;45275;-85
2022/06/23 00:54:49;;;;;;;;;31.25;24.50;;;;;21.37;63.25;100690.31;6247565;22;45603;-85
2022/06/23 00:57:35;;;;;;;;;26.00;24.75;;;;;21.34;63.49;100698.47;6274995;22;46345;-85
2022/06/23 01:00:16;;;;;;;;;28.75;22.75;;;;;21.31;63.92;100691.63;6275002;22;45270;-85
2022/06/23 01:02:50;;;;;;;;;28.50;25.00;;;;;21.29;63.85;100692.72;6246718;22;45324;-84
2022/06/23 01:05:28;;;;;;;;;24.50;22.25;;;;;21.29;64.12;100700.66;6273073;22;45492;-85
2022/06/23 01:08:12;;;;;;;;;24.25;22.50;;;;;21.30;63.31;100704.97;6220494;22;47267;-84
2022/06/23 01:10:55;;;;;;;;;26.00;22.00;;;;;21.29;63.60;100698.00;6274219;22;45298;-84
2022/06/23 01:13:39;;;;;;;;;23.75;20.75;;;;;21.23;63.61;100697.50;6274105;22;45346;-85
2022/06/23 01:16:13;;;;;;;;;27.25;24.75;;;;;21.21;63.37;100698.53;6246789;22;45481;-85
2022/06/23 01:18:47;;;;;;;;;25.75;23.75;;;;;21.14;64.64;100690.22;6273709;22;46519;-85
2022/06/23 01:21:26;;;;;;;;;27.00;22.25;;;;;21.10;64.53;100687.91;6246165;22;45307;-85
2022/06/23 01:23:54;;;;;;;;;24.25;21.25;;;;;21.07;64.55;100684.53;6246217;22;45314;-85
2022/06/23 01:26:44;;;;;;;;;25.25;24.50;;;;;21.09;64.72;100676.50;6273607;22;45473;-84
2022/06/23 01:29:20;;;;;;;;;27.00;24.00;;;;;21.06;64.98;100684.66;6246504;22;45469;-85
2022/06/23 01:31:49;;;;;;;;;19.00;17.00;;;;;21.04;64.68;100679.50;6246199;22;45836;-85
2022/06/23 01:34:21;;;;;;;;;29.75;25.25;;;;;21.04;65.38;100674.19;6273160;22;45300;-85
2022/06/23 01:37:00;;;;;;;;;22.00;21.25;;;;;21.03;65.17;100679.59;6245930;22;45420;-85
2022/06/23 01:39:33;;;;;;;;;26.75;23.50;;;;;21.03;65.40;100684.91;6246450;22;45354;-85
2022/06/23 01:42:15;;;;;;;;;22.25;21.25;;;;;20.99;65.57;100683.44;6245937;22;45818;-85
2022/06/23 01:44:40;;;;;;;;;25.50;23.25;;;;;20.98;65.72;100676.44;6246375;22;45318;-84
2022/06/23 01:47:35;;;;;;;;;24.00;22.67;;;;;20.90;65.30;100674.38;6273464;22;45338;-85
2022/06/23 01:50:12;;;;;;;;;26.00;22.50;;;;;20.91;65.50;100675.19;6245464;22;46471;-85
2022/06/23 01:52:38;;;;;;;;;28.25;21.00;;;;;20.93;65.34;100674.16;6273430;22;45301;-85
2022/06/23 01:55:14;;;;;;;;;27.50;23.00;;;;;20.92;65.59;100675.09;6246127;22;45272;-85
2022/06/23 01:57:46;;;;;;;;;24.75;21.00;;;;;20.92;66.31;100671.63;6246358;22;45451;-84
2022/06/23 02:00:17;;;;;;;;;28.75;23.75;;;;;20.86;65.84;100665.81;6245975;22;45354;-85
2022/06/23 02:02:58;;;;;;;;;20.50;20.25;;;;;20.85;65.87;100673.84;6245784;22;45748;-85
2022/06/23 02:05:46;;;;;;;;;21.50;21.00;;;;;20.87;65.52;100664.84;6246058;22;45259;-85
2022/06/23 02:08:25;;;;;;;;;27.25;23.50;;;;;20.92;65.80;100661.88;6246175;22;45464;-85
2022/06/23 02:10:52;;;;;;;;;27.00;21.50;;;;;20.97;65.86;100669.44;6273306;22;45526;-85
2022/06/23 02:13:32;;;;;;;;;28.25;24.00;;;;;20.98;65.52;100665.84;6246165;22;45287;-85
2022/06/23 02:16:01;;;;;;;;;23.75;22.00;;;;;20.98;65.98;100669.34;6246217;22;45350;-85
2022/06/23 02:18:33;;;;;;;;;28.50;23.00;;;;;21.02;65.41;100669.97;6272818;22;45320;-85
2022/06/23 02:21:26;;;;;;;;;25.50;25.00;;;;;21.05;65.12;100667.94;6220236;22;48458;-85
2022/06/23 02:24:15;;;;;;;;;28.75;24.75;;;;;21.05;65.96;100662.63;6273043;22;45845;-85
2022/06/23 02:27:02;;;;;;;;;23.50;21.50;;;;;21.02;65.80;100664.66;6208883;22;45355;-85
2022/06/23 02:29:39;;;;;;;;;29.00;26.25;;;;;21.02;66.31;100664.66;6209271;22;45573;-85
2022/06/23 02:32:19;;;;;;;;;25.75;22.75;;;;;21.03;65.76;100667.19;6183019;22;48038;-85
2022/06/23 02:34:55;;;;;;;;;27.50;23.50;;;;;21.08;65.97;100666.88;6183650;22;45829;-85
2022/06/23 02:37:47;;;;;;;;;28.00;23.50;;;;;21.13;65.97;100661.22;6184464;22;45827;-85
2022/06/23 02:40:19;;;;;;;;;26.00;24.50;;;;;21.18;65.66;100659.94;6209069;22;45482;-85
2022/06/23 02:42:50;;;;;;;;;27.75;25.25;;;;;21.20;66.21;100654.53;6208584;22;46665;-85
2022/06/23 02:45:21;;;;;;;;;25.50;22.00;;;;;21.23;65.52;100654.31;6184044;22;45831;-85
2022/06/23 02:48:04;;;;;;;;;32.25;25.25;;;;;21.24;65.85;100648.88;6209017;22;45276;-84
2022/06/23 02:50:49;;;;;;;;;31.00;25.00;;;;;21.26;65.74;100656.69;6208464;22;45484;-86
2022/06/23 02:53:47;;;;;;;;;25.50;23.75;;;;;21.26;65.67;100652.25;6183202;22;46241;-85
2022/06/23 02:56:24;;;;;;;;;27.25;25.50;;;;;21.27;65.59;100651.28;6183689;22;45334;-85
2022/06/23 02:58:57;;;;;;;;;33.00;26.50;;;;;21.26;65.55;100648.75;6209566;22;45448;-85
2022/06/23 03:01:26;;;;;;;;;33.75;28.00;;;;;21.29;65.46;100656.47;6208400;22;45556;-84
2022/06/23 03:04:03;;;;;;;;;29.00;25.25;;;;;21.32;65.73;100650.09;6244270;22;46202;-85
2022/06/23 03:06:51;;;;;;;;;34.00;28.50;;;;;21.31;65.77;100657.22;6245932;22;45275;-85
2022/06/23 03:09:30;;;;;;;;;25.25;25.25;;;;;21.37;65.54;100656.72;6245713;22;45283;-85
2022/06/23 03:11:57;;;;;;;;;29.50;27.25;;;;;21.41;65.90;100663.50;6245610;22;45458;-85
2022/06/23 03:14:32;;;;;;;;;29.50;26.50;;;;;21.44;65.95;100657.13;6245587;22;46209;-85
2022/06/23 03:17:24;;;;;;;;;31.50;26.50;;;;;21.45;65.81;100661.47;6245091;22;45767;-85
2022/06/23 03:20:16;;;;;;;;;34.25;29.75;;;;;21.43;66.57;100664.22;6237065;22;45321;-84
2022/06/23 03:23:13;;;;;;;;;32.00;28.25;;;;;21.37;66.41;100679.72;6208439;22;45270;-85
2022/06/23 03:25:47;;;;;;;;;31.50;28.75;;;;;21.35;67.18;100673.69;6190477;22;48529;-84
2022/06/23 03:28:25;;;;;;;;;33.25;29.50;;;;;21.33;66.53;100672.97;6208967;22;45303;-85
2022/06/23 03:31:06;;;;;;;;;22.25;19.50;;;;;21.26;67.62;100676.06;6208564;22;45284;-86
2022/06/23 03:33:40;;;;;;;;;17.75;15.00;;;;;21.21;67.98;100672.94;6183371;22;45483;-86
2022/06/23 03:36:20;;;;;;;;;10.25;8.25;;;;;21.16;68.67;100674.25;6183447;22;46532;-85
2022/06/23 03:42:28;;;;;;;;;7.50;6.25;;;;;21.08;68.93;100690.69;6208901;22;45340;-86
2022/06/23 03:45:20;;;;;;;;;5.00;5.00;;;;;21.07;67.88;100695.13;6188389;22;45560;-85
2022/06/23 03:47:55;;;;;;;;;4.75;4.75;;;;;21.00;68.96;100693.03;6203726;22;48359;-85
2022/06/23 03:50:25;;;;;;;;;4.00;4.00;;;;;20.90;68.50;100698.19;6183364;22;45387;-85
2022/06/23 03:52:56;;;;;;;;;4.00;3.50;;;;;20.79;69.02;100703.41;6208898;22;45306;-86
2022/06/23 03:55:29;;;;;;;;;7.75;4.00;;;;;20.69;68.58;100700.59;6183175;22;45295;-85
2022/06/23 03:57:58;;;;;;;;;7.50;5.50;;;;;20.64;68.75;100703.53;6183274;22;46244;-85
2022/06/23 04:00:37;;;;;;;;;6.50;4.00;;;;;20.59;69.45;100721.50;6260558;22;45255;-86
2022/06/23 04:03:09;;;;;;;;;5.00;4.25;;;;;20.52;69.63;100711.47;6247419;22;45200;-87
2022/06/23 04:05:57;;;;;;;;;4.00;3.75;;;;;20.44;69.31;100714.66;6247296;22;45449;-86
2022/06/23 04:08:24;;;;;;;;;2.00;2.00;;;;;20.45;69.34;100729.59;6273757;22;46438;-86
2022/06/23 04:10:52;;;;;;;;;5.00;4.75;;;;;20.47;69.22;100723.22;6246675;22;45183;-86
2022/06/23 04:13:23;;;;;;;;;6.50;4.50;;;;;20.50;69.53;100727.44;6274167;22;45458;-86
2022/06/23 04:15:50;;;;;;;;;7.25;3.00;;;;;20.47;70.10;100727.69;6274432;22;45245;-86
2022/06/23 04:18:28;;;;;;;;;7.00;4.00;;;;;20.43;69.47;100729.69;6273637;22;46004;-86
2022/06/23 04:20:59;;;;;;;;;5.00;4.00;;;;;20.38;69.30;100730.97;6246849;22;45294;-85
2022/06/23 04:23:29;;;;;;;;;5.00;4.75;;;;;20.33;69.15;100731.28;6246679;22;45171;-86
2022/06/23 04:26:12;;;;;;;;;5.00;4.25;;;;;20.31;69.53;100743.75;6246532;22;45453;-86
2022/06/23 04:28:44;;;;;;;;;5.50;4.00;;;;;20.26;69.65;100746.75;6246731;22;45541;-85
2022/06/23 04:31:16;;;;;;;;;8.25;5.50;;;;;20.21;69.47;100750.66;6246773;22;45276;-85
2022/06/23 04:33:43;;;;;;;;;4.75;4.00;;;;;20.18;69.67;100756.16;6273781;22;45203;-85
2022/06/23 04:36:20;;;;;;;;;4.25;3.00;;;;;20.16;69.11;100756.25;6273862;22;45500;-84
2022/06/23 04:38:55;;;;;;;;;6.50;2.25;;;;;20.14;69.27;100752.03;6246789;22;45364;-85
2022/06/23 04:41:28;;;;;;;;;4.25;4.00;;;;;20.08;70.03;100754.13;6246378;22;46242;-84
2022/06/23 04:43:58;;;;;;;;;5.25;3.75;;;;;20.02;70.05;100751.91;6246551;22;45292;-85
2022/06/23 04:46:35;;;;;;;;;3.75;0.50;;;;;20.00;70.24;100753.81;6246489;22;45567;-85
2022/06/23 04:49:04;;;;;;;;;5.75;3.75;;;;;20.00;69.90;100753.81;6273635;22;45418;-86
2022/06/23 04:51:33;;;;;;;;;5.00;3.25;;;;;20.02;69.81;100751.91;6246264;22;45336;-85
2022/06/23 04:54:10;;;;;;;;;2.50;2.50;;;;;20.03;70.16;100753.59;6246371;22;45318;-85
2022/06/23 04:56:50;;;;;;;;;4.00;3.00;;;;;20.05;70.13;100750.84;6273625;22;45335;-85
2022/06/23 04:59:30;;;;;;;;;7.75;3.75;;;;;20.07;69.63;100760.34;6274032;22;46663;-84
2022/06/23 05:02:02;;;;;;;;;2.50;2.25;;;;;20.06;70.45;100765.78;6246443;22;45663;-86
2022/06/23 05:04:36;;;;;;;;;5.25;4.00;;;;;20.04;70.03;100765.88;6246526;22;45244;-86
2022/06/23 05:07:02;;;;;;;;;3.50;3.50;;;;;20.01;70.13;100766.06;6246960;22;45327;-86
2022/06/23 05:09:34;;;;;;;;;5.00;3.25;;;;;20.01;69.65;100759.94;6273471;22;45287;-86
2022/06/23 05:12:17;;;;;;;;;4.75;3.00;;;;;19.99;70.08;100756.56;6245364;22;45299;-85
2022/06/23 05:14:56;;;;;;;;;4.00;4.00;;;;;19.94;70.38;100762.16;6246528;22;45297;-88
2022/06/23 05:17:27;;;;;;;;;4.50;4.50;;;;;19.89;70.96;100773.03;6247342;22;45836;-88
2022/06/23 05:19:54;;;;;;;;;4.50;3.00;;;;;19.87;70.25;100769.66;6221099;22;47015;-88
2022/06/23 05:22:49;;;;;;;;;6.25;3.25;;;;;19.94;70.64;100774.53;6247137;22;45445;-88
2022/06/23 05:25:15;;;;;;;;;5.25;4.00;;;;;19.98;70.65;100768.91;6239806;22;45293;-87
2022/06/23 05:27:43;;;;;;;;;7.00;3.00;;;;;20.04;70.17;100779.06;6274539;22;45493;-88
2022/06/23 05:30:14;;;;;;;;;7.25;4.00;;;;;20.10;70.33;100778.66;6247120;22;46222;-89
2022/06/23 05:32:45;;;;;;;;;4.00;4.00;;;;;20.17;70.00;100780.88;6247792;22;45545;-90
2022/06/23 05:35:20;;;;;;;;;4.50;3.75;;;;;20.24;70.51;100784.78;6246781;22;45355;-87
2022/06/23 05:38:09;;;;;;;;;3.25;2.75;;;;;20.29;69.85;100775.59;6223203;22;45447;-87
2022/06/23 05:40:47;;;;;;;;;4.00;4.00;;;;;20.39;69.40;100782.88;6246496;22;46187;-87
2022/06/23 05:43:13;;;;;;;;;4.00;3.00;;;;;20.42;69.92;100780.03;6273382;22;45716;-86
2022/06/23 05:45:42;;;;;;;;;4.00;4.00;;;;;20.45;69.17;100774.53;6245339;22;65348;-87
2022/06/23 05:48:11;;;;;;;;;3.00;3.00;;;;;20.46;69.26;100777.03;6220868;22;45465;-89
2022/06/23 05:50:48;;;;;;;;;6.25;5.25;;;;;20.43;69.22;100772.00;6246700;22;45299;-88
2022/06/23 05:53:31;;;;;;;;;4.25;3.75;;;;;20.39;68.40;100770.53;6246304;22;45721;-88
2022/06/23 05:56:01;;;;;;;;;6.75;2.75;;;;;20.34;68.17;100775.28;6220800;22;45264;-88
2022/06/23 05:58:44;;;;;;;;;3.75;3.75;;;;;20.34;68.50;100766.47;6247323;22;45384;-88
2022/06/23 06:01:17;;;;;;;;;5.00;3.75;;;;;20.30;67.97;100766.72;6221079;22;47053;-89
2022/06/23 06:03:49;;;;;;;;;7.00;5.00;;;;;20.30;68.36;100764.06;6274495;22;45223;-90
2022/06/23 06:06:15;;;;;;;;;3.50;3.00;;;;;20.38;68.11;100760.06;6247079;22;45243;-89
2022/06/23 06:11:50;;;;;;;;;5.75;2.25;;;;;20.43;66.84;100747.34;6252079;22;45311;-88
2022/06/23 06:14:20;;;;;;;;;4.00;3.00;;;;;20.41;66.66;100744.81;6246790;22;45682;-88
2022/06/23 06:16:45;;;;;;;;;5.00;5.00;;;;;20.41;66.61;100742.19;6247522;22;45316;-90
2022/06/23 06:19:19;;;;;;;;;6.50;5.00;;;;;20.44;66.08;100741.94;6247066;22;45354;-90
2022/06/23 06:21:48;;;;;;;;;7.50;5.25;;;;;20.54;65.55;100741.28;6247580;22;46343;-90
2022/06/23 06:24:37;;;;;;;;;5.00;5.00;;;;;20.65;65.17;100744.91;6221344;22;45688;-89
2022/06/23 06:27:03;;;;;;;;;4.50;4.50;;;;;20.71;64.56;100742.78;6247689;22;45299;-89
2022/06/23 06:29:37;;;;;;;;;5.00;5.00;;;;;20.71;64.04;100741.00;6247106;22;45425;-89
2022/06/23 06:32:27;;;;;;;;;5.00;5.00;;;;;20.73;64.14;100744.38;6247059;22;46596;-89
2022/06/23 06:35:01;;;;;;;;;6.00;6.00;;;;;20.73;64.36;100747.00;6246801;22;45609;-89
2022/06/23 06:37:30;;;;;;;;;8.25;6.75;;;;;20.84;63.57;100759.47;6273934;22;45197;-89
2022/06/23 06:39:59;;;;;;;;;7.50;7.00;;;;;20.95;63.40;100758.69;6246169;22;45355;-88
2022/06/23 06:42:32;;;;;;;;;8.50;6.00;;;;;21.03;62.56;100766.94;6246287;22;48349;-88
2022/06/23 06:45:00;;;;;;;;;6.25;4.75;;;;;21.03;62.54;100757.19;6246643;22;45284;-89
2022/06/23 06:47:29;;;;;;;;;9.00;6.25;;;;;20.99;62.54;100757.53;6247086;22;45267;-89
2022/06/23 06:49:58;;;;;;;;;8.50;5.50;;;;;20.95;62.69;100751.59;6272280;22;45540;-90
2022/06/23 06:52:24;;;;;;;;;10.75;7.00;;;;;20.91;62.50;100744.00;6246529;22;46342;-88
2022/06/23 06:55:06;;;;;;;;;9.00;8.00;;;;;20.91;63.06;100757.22;6246023;22;45738;-88
2022/06/23 06:57:40;;;;;;;;;6.00;5.75;;;;;20.91;63.07;100754.56;6246814;22;45331;-89
2022/06/23 07:00:17;;;;;;;;;7.50;6.25;;;;;20.93;62.64;100755.31;6247559;22;45377;-92
2022/06/23 07:02:51;;;;;;;;;7.00;5.75;;;;;20.91;62.43;100760.69;6247162;22;47050;-92
2022/06/23 07:05:37;;;;;;;;;11.00;7.75;;;;;20.87;62.58;100760.06;6247584;22;45904;-89
2022/06/23 07:08:23;;;;;;;;;5.00;5.00;;;;;20.90;62.60;100766.97;6271579;22;45345;-85
2022/06/23 07:10:52;;;;;;;;;6.00;6.00;;;;;20.94;61.89;100764.94;6272588;22;45223;-86
2022/06/23 07:13:29;;;;;;;;;7.25;6.00;;;;;20.94;62.12;100763.13;6245646;22;45270;-85
2022/06/23 07:16:15;;;;;;;;;7.25;5.00;;;;;20.91;61.36;100755.41;6246143;22;45748;-86
2022/06/23 07:18:47;;;;;;;;;7.25;6.50;;;;;20.94;62.08;100764.94;6245603;22;45307;-83
2022/06/23 07:21:20;;;;;;;;;7.00;6.00;;;;;20.97;62.16;100746.19;6245964;22;45414;-87
2022/06/23 07:23:51;;;;;;;;;6.00;6.00;;;;;21.03;61.87;100757.19;6244908;22;45985;-86
2022/06/23 07:26:40;;;;;;;;;7.00;6.00;;;;;21.13;61.73;100753.88;6246090;22;45356;-85
2022/06/23 07:29:13;;;;;;;;;6.00;5.75;;;;;21.20;61.64;100769.19;6262881;22;45240;-86
2022/06/23 07:31:58;;;;;;;;;10.25;6.00;;;;;21.30;61.46;100763.22;6245402;22;45256;-86
2022/06/23 07:34:26;;;;;;;;;6.50;4.25;;;;;21.39;61.39;100768.66;6272651;22;45395;-84
2022/06/23 07:36:58;;;;;;;;;8.75;5.75;;;;;21.51;61.24;100781.97;6245607;22;45498;-86
2022/06/23 07:39:34;;;;;;;;;8.00;6.00;;;;;21.59;60.67;100779.63;6269282;22;45422;-86
2022/06/23 07:42:40;;;;;;;;;10.00;6.00;;;;;21.69;60.10;100777.13;6243287;22;45287;-87
2022/06/23 07:45:10;;;;;;;;;5.00;5.00;;;;;21.77;59.79;100786.19;6207696;22;46768;-86
2022/06/23 07:47:35;;;;;;;;;6.00;5.00;;;;;21.86;59.55;100782.00;6207915;22;45478;-86
2022/06/23 07:50:04;;;;;;;;;7.00;6.00;;;;;21.95;59.27;100783.97;6206391;22;45362;-86
2022/06/23 07:52:29;;;;;;;;;8.00;7.00;;;;;22.02;58.90;100785.16;6207074;22;45364;-84
2022/06/23 07:54:55;;;;;;;;;1.00;0.75;;;;;22.11;58.93;100785.44;6208160;22;46017;-84
2022/06/23 07:57:20;;;;;;;;;8.50;6.75;;;;;22.16;58.78;100797.38;6205106;22;45396;-85
2022/06/23 07:59:50;;;;;;;;;7.00;7.00;;;;;22.21;59.13;100784.59;6182235;22;59704;-84
2022/06/23 08:02:22;;;;;;;;;9.00;6.50;;;;;22.26;58.97;100786.09;6182492;22;45636;-85
2022/06/23 08:04:56;;;;;;;;;8.00;6.00;;;;;22.26;57.70;100784.28;6204289;22;46283;-84
2022/06/23 08:07:21;;;;;;;;;9.25;6.25;;;;;22.26;58.42;100784.28;6183237;22;45670;-84
2022/06/23 08:09:50;;;;;;;;;5.50;5.50;;;;;22.33;57.67;100774.88;6207787;22;67375;-84
2022/06/23 08:18:13;;;;;;;;;10.50;5.25;;;;;22.44;57.28;100779.34;6216817;22;45312;-84
2022/06/23 08:20:42;;;;;;;;;7.00;4.75;;;;;22.46;56.09;100779.22;6245708;22;45311;-84
2022/06/23 08:23:10;;;;;;;;;7.00;5.50;;;;;22.48;57.20;100782.59;6273286;22;45239;-83
2022/06/23 08:25:36;;;;;;;;;8.75;7.00;;;;;22.57;57.01;100785.38;6246084;22;45546;-83
2022/06/23 08:28:01;;;;;;;;;7.00;5.00;;;;;22.65;56.36;100781.28;6244365;22;63801;-83
2022/06/23 08:30:27;;;;;;;;;7.25;6.00;;;;;22.63;56.23;100777.91;6246130;22;45264;-84
2022/06/23 08:32:53;;;;;;;;;6.25;5.00;;;;;22.61;55.94;100775.38;6246252;22;45355;-84
2022/06/23 08:35:27;;;;;;;;;6.00;6.00;;;;;22.67;55.96;100785.47;6272817;22;45626;-84
2022/06/23 08:37:58;;;;;;;;;6.25;5.00;;;;;22.72;56.20;100778.00;6245775;22;45797;-84
2022/06/23 08:40:51;;;;;;;;;5.50;5.50;;;;;22.82;55.79;100770.16;6246561;22;45328;-84
2022/06/23 08:43:34;;;;;;;;;6.25;5.00;;;;;22.89;55.54;100774.00;6273673;22;45494;-84
2022/06/23 08:46:06;;;;;;;;;7.00;6.25;;;;;23.03;55.42;100783.53;6245972;22;45382;-84
2022/06/23 08:48:37;;;;;;;;;5.25;4.50;;;;;23.10;54.96;100792.69;6272609;22;45566;-84
2022/06/23 08:51:14;;;;;;;;;8.25;6.00;;;;;23.18;55.00;100784.97;6273126;22;45294;-84
2022/06/23 08:53:42;;;;;;;;;5.00;5.00;;;;;23.25;54.55;100781.78;6273474;22;45149;-83
2022/06/23 08:56:31;;;;;;;;;6.00;4.00;;;;;23.26;53.95;100780.84;6244672;22;46401;-83
2022/06/23 08:59:17;;;;;;;;;5.00;5.00;;;;;23.29;53.99;100784.09;6220567;22;45346;-85
2022/06/23 09:01:57;;;;;;;;;5.75;4.50;;;;;23.32;52.97;100786.47;6245795;22;45313;-83
2022/06/23 09:04:35;;;;;;;;;4.75;4.75;;;;;23.33;51.81;100787.34;6273031;22;45392;-84
2022/06/23 09:07:18;;;;;;;;;9.75;5.00;;;;;23.36;51.87;100781.75;6246715;22;45366;-84
2022/06/23 09:09:54;;;;;;;;;3.75;3.75;;;;;23.42;52.00;100780.41;6246145;22;45334;-83
2022/06/23 09:12:45;;;;;;;;;5.75;4.75;;;;;23.51;52.47;100780.50;6246561;22;45310;-84
2022/06/23 09:15:28;;;;;;;;;8.25;5.50;;;;;23.62;53.46;100782.25;6269630;22;45487;-84
2022/06/23 09:18:24;;;;;;;;;6.50;6.25;;;;;23.74;52.19;100775.91;6270246;22;48638;-84
2022/06/23 09:21:09;;;;;;;;;5.00;5.00;;;;;23.88;51.83;100779.25;6245723;22;45336;-85
2022/06/23 09:23:49;;;;;;;;;5.75;5.00;;;;;23.86;51.60;100776.72;6245700;22;45200;-85
2022/06/23 09:26:49;;;;;;;;;8.75;6.00;;;;;23.91;52.27;100776.34;6246495;22;45372;-85
2022/06/23 09:29:40;;;;;;;;;5.50;5.50;;;;;23.96;51.92;100780.31;6148844;23;46047;-85
2022/06/23 09:32:14;;;;;;;;;5.75;4.75;;;;;24.05;50.76;100786.66;6146004;23;45966;-86
2022/06/23 09:35:07;;;;;;;;;5.75;4.75;;;;;24.07;50.55;100779.41;6148599;23;45684;-85
2022/06/23 09:37:51;;;;;;;;;5.75;5.75;;;;;24.16;51.23;100775.06;6148613;23;45408;-85
2022/06/23 09:40:37;;;;;;;;;4.50;4.50;;;;;24.23;49.76;100772.75;6149387;23;46162;-84
2022/06/23 09:43:44;;;;;;;;;5.00;5.00;;;;;24.26;50.12;100768.00;6124603;23;45289;-85
2022/06/23 09:46:56;;;;;;;;;4.25;4.00;;;;;24.32;49.41;100764.81;6144417;23;45499;-83
2022/06/23 09:49:45;;;;;;;;;5.00;4.00;;;;;24.34;49.58;100762.84;6148356;23;45317;-80
2022/06/23 09:52:41;;;;;;;;;5.00;5.00;;;;;24.39;49.05;100773.13;6148234;23;46297;-80
2022/06/23 09:55:30;;;;;;;;;7.25;4.50;;;;;24.43;48.94;100765.72;6143344;23;45852;-83
2022/06/23 09:58:18;;;;;;;;;4.75;3.75;;;;;24.46;48.65;100766.28;6147970;23;45388;-83
2022/06/23 10:00:54;;;;;;;;;4.50;4.00;;;;;24.44;48.78;100764.72;6122784;23;45594;-83
2022/06/23 10:03:25;;;;;;;;;4.50;4.50;;;;;24.43;48.85;100766.53;6122842;23;46582;-83
2022/06/23 10:06:13;;;;;;;;;5.75;4.75;;;;;24.49;48.60;100766.00;6174246;22;45498;-83
2022/06/23 10:09:16;;;;;;;;;5.75;5.75;;;;;24.56;48.39;100757.53;6215010;22;45352;-84
2022/06/23 10:12:05;;;;;;;;;7.00;6.00;;;;;24.62;48.82;100763.13;6242063;22;45411;-83
2022/06/23 10:14:52;;;;;;;;;7.00;5.75;;;;;24.82;47.80;100774.69;6241504;22;47525;-83
2022/06/23 10:17:26;;;;;;;;;8.50;5.00;;;;;24.94;48.05;100764.75;6213826;22;45376;-82
2022/06/23 10:20:02;;;;;;;;;5.25;5.00;;;;;25.12;47.47;100767.59;6242217;22;45298;-83
2022/06/23 10:22:49;;;;;;;;;5.00;5.00;;;;;25.33;47.22;100766.66;6214245;22;45307;-83
2022/06/23 10:25:20;;;;;;;;;6.25;5.75;;;;;25.57;46.45;100763.59;6242347;22;45346;-83
2022/06/23 10:27:59;;;;;;;;;4.25;4.25;;;;;25.65;47.19;100758.41;6214406;22;45744;-83
2022/06/23 10:30:52;;;;;;;;;4.25;4.25;;;;;25.84;45.71;100768.19;6240880;22;45267;-83
2022/06/23 10:33:23;;;;;;;;;5.25;5.00;;;;;26.07;44.96;100776.72;6213883;22;45505;-85
2022/06/23 10:36:20;;;;;;;;;7.00;5.75;;;;;26.24;45.45;100764.47;6241580;22;45423;-85
2022/06/23 10:39:03;;;;;;;;;8.00;5.00;;;;;26.32;44.15;100764.59;6214249;22;45702;-84
2022/06/23 10:41:50;;;;;;;;;5.00;5.00;;;;;26.34;44.34;100756.44;6190203;22;45286;-88
2022/06/23 10:45:02;;;;;;;;;7.75;6.25;;;;;26.29;44.90;100746.19;6217264;22;45449;-87
2022/06/23 10:47:48;;;;;;;;;6.25;6.25;;;;;26.32;44.54;100751.25;6182481;23;45557;-89
2022/06/23 10:50:32;;;;;;;;;5.00;4.00;;;;;26.45;44.39;100748.25;6175194;23;45725;-84
2022/06/23 10:53:08;;;;;;;;;5.25;5.25;;;;;26.63;43.28;100743.81;6179470;23;45344;-89
2022/06/23 10:56:09;;;;;;;;;7.00;5.00;;;;;26.76;42.84;100750.63;6153737;23;45553;-90
2022/06/23 10:58:46;;;;;;;;;6.00;4.75;;;;;27.01;42.30;100744.56;6153139;23;48348;-88
2022/06/23 11:01:38;;;;;;;;;7.50;4.00;;;;;27.15;43.43;100748.53;6152570;23;45883;-87
2022/06/23 11:04:45;;;;;;;;;6.00;4.00;;;;;27.33;42.54;100743.22;6146688;23;45368;-85
2022/06/23 11:07:13;;;;;;;;;4.00;4.00;;;;;27.58;41.34;100743.41;6059357;23;45399;-87
2022/06/23 11:10:17;;;;;;;;;6.50;5.00;;;;;27.88;42.14;100739.47;6058745;23;45422;-86
2022/06/23 11:13:00;;;;;;;;;6.00;5.75;;;;;28.16;41.56;100739.34;6059058;23;45606;-85
2022/06/23 11:15:37;;;;;;;;;6.25;6.00;;;;;28.37;41.35;100745.09;6059197;23;45292;-86
2022/06/23 11:18:27;;;;;;;;;7.00;5.75;;;;;28.49;38.87;100740.31;6058459;23;45237;-86
2022/06/23 11:20:57;;;;;;;;;5.25;4.25;;;;;28.60;39.64;100735.69;6058382;23;46530;-84
2022/06/23 11:23:35;;;;;;;;;7.00;5.75;;;;;28.56;40.86;100729.81;6059120;23;45279;-83
2022/06/23 11:26:31;;;;;;;;;7.00;5.00;;;;;28.55;40.04;100734.34;6001519;23;45290;-83
2022/06/23 11:29:30;;;;;;;;;7.00;6.00;;;;;28.42;39.51;100733.94;6058565;23;45378;-85
2022/06/23 11:32:04;;;;;;;;;4.50;4.00;;;;;28.09;40.92;100725.75;6058520;23;46350;-83
2022/06/23 11:34:30;;;;;;;;;5.50;5.50;;;;;27.87;39.77;100735.09;6059966;23;45280;-85
2022/06/23 11:37:19;;;;;;;;;6.75;5.00;;;;;27.61;40.80;100732.41;6058378;23;45354;-84
2022/06/23 11:39:53;;;;;;;;;6.25;5.25;;;;;27.38;41.78;100724.91;6059798;23;45453;-83
2022/06/23 11:42:44;;;;;;;;;7.00;5.75;;;;;27.36;42.15;100721.53;6088937;23;45480;-85
2022/06/23 11:45:34;;;;;;;;;6.75;5.25;;;;;27.32;40.86;100720.19;6146763;23;45291;-82
2022/06/23 11:48:09;;;;;;;;;4.25;4.25;;;;;27.18;41.07;100718.00;6146911;23;45341;-86
2022/06/23 11:50:43;;;;;;;;;5.00;4.00;;;;;27.10;41.78;100708.09;6174303;23;45320;-85
2022/06/23 11:53:26;;;;;;;;;6.25;4.75;;;;;27.19;41.58;100709.84;6152766;23;45388;-84
2022/06/23 11:55:55;;;;;;;;;6.00;5.00;;;;;27.22;40.66;100719.38;6177248;23;45312;-83
2022/06/23 11:58:39;;;;;;;;;5.50;5.50;;;;;27.33;42.27;100710.31;6177374;23;45280;-83
2022/06/23 12:01:19;;;;;;;;;5.00;5.00;;;;;27.52;41.36;100703.94;6176456;23;45491;-84
2022/06/23 12:04:00;;;;;;;;;7.00;6.00;;;;;27.53;40.46;100701.13;6176385;23;45430;-84
2022/06/23 12:06:38;;;;;;;;;6.50;5.25;;;;;27.49;40.50;100696.22;6219348;22;45780;-84
2022/06/23 12:09:22;;;;;;;;;3.00;3.00;;;;;27.49;40.83;100698.91;6241484;22;45306;-85
2022/06/23 12:11:47;;;;;;;;;5.00;5.00;;;;;27.52;41.10;100695.94;6240586;22;45423;-84
2022/06/23 12:14:15;;;;;;;;;4.50;4.50;;;;;27.49;40.40;100689.06;6212836;22;75889;-85
2022/06/23 12:16:57;;;;;;;;;6.50;5.75;;;;;27.53;41.36;100686.94;6213734;22;45584;-85
2022/06/23 12:19:30;;;;;;;;;6.00;5.50;;;;;27.62;40.45;100683.31;6214052;22;45304;-84